sensor_id;sensor_type;location;lat;lon;timestamp;pressure;altitude;pressure_sealevel;temperature;humidity
15314;BME280;7757;52.626;4.746;2023-03-26T00:00:34;100504.44;;;14.67;58.30
15314;BME280;7757;52.626;4.746;2023-03-26T00:03:21;100503.59;;;14.67;58.78
15314;BME280;7757;52.626;4.746;2023-03-26T00:06:08;100502.38;;;14.63;58.61
15314;BME280;7757;52.626;4.746;2023-03-26T00:08:57;100495.59;;;14.60;58.51
15314;BME280;7757;52.626;4.746;2023-03-26T00:11:43;100513.75;;;14.65;58.35
15314;BME280;7757;52.626;4.746;2023-03-26T00:14:31;100511.28;;;14.63;58.79
15314;BME280;7757;52.626;4.746;2023-03-26T00:17:18;100508.00;;;14.61;58.51
15314;BME280;7757;52.626;4.746;2023-03-26T00:20:05;100503.22;;;14.63;58.89
15314;BME280;7757;52.626;4.746;2023-03-26T00:22:53;100498.88;;;14.62;58.45
15314;BME280;7757;52.626;4.746;2023-03-26T00:25:39;100496.03;;;14.57;58.48
15314;BME280;7757;52.626;4.746;2023-03-26T00:28:26;100499.09;;;14.61;58.23
15314;BME280;7757;52.626;4.746;2023-03-26T00:31:14;100486.09;;;14.58;59.38
15314;BME280;7757;52.626;4.746;2023-03-26T00:34:00;100493.72;;;14.61;58.72
15314;BME280;7757;52.626;4.746;2023-03-26T00:36:49;100495.59;;;14.60;58.65
15314;BME280;7757;52.626;4.746;2023-03-26T00:39:37;100484.00;;;14.60;58.40
15314;BME280;7757;52.626;4.746;2023-03-26T00:42:23;100483.41;;;14.58;58.39
15314;BME280;7757;52.626;4.746;2023-03-26T00:45:10;100481.53;;;14.58;59.37
15314;BME280;7757;52.626;4.746;2023-03-26T00:48:03;100487.13;;;14.57;58.15
15314;BME280;7757;52.626;4.746;2023-03-26T00:50:49;100478.22;;;14.56;58.19
15314;BME280;7757;52.626;4.746;2023-03-26T00:53:35;100482.31;;;14.59;58.87
15314;BME280;7757;52.626;4.746;2023-03-26T00:56:24;100485.03;;;14.59;59.01
15314;BME280;7757;52.626;4.746;2023-03-26T00:59:10;100469.56;;;14.54;59.24
15314;BME280;7757;52.626;4.746;2023-03-26T01:01:57;100472.63;;;14.58;58.84
15314;BME280;7757;52.626;4.746;2023-03-26T01:04:46;100464.38;;;14.52;58.56
15314;BME280;7757;52.626;4.746;2023-03-26T01:07:32;100457.75;;;14.55;59.52
15314;BME280;7757;52.626;4.746;2023-03-26T01:10:18;100441.22;;;14.51;58.84
15314;BME280;7757;52.626;4.746;2023-03-26T01:13:05;100440.97;;;14.53;59.37
15314;BME280;7757;52.626;4.746;2023-03-26T01:15:51;100442.03;;;14.52;58.93
15314;BME280;7757;52.626;4.746;2023-03-26T01:18:37;100445.53;;;14.52;59.53
15314;BME280;7757;52.626;4.746;2023-03-26T01:21:28;100451.97;;;14.51;59.24
15314;BME280;7757;52.626;4.746;2023-03-26T01:24:16;100449.28;;;14.51;58.98
15314;BME280;7757;52.626;4.746;2023-03-26T01:27:15;100446.38;;;14.53;58.46
15314;BME280;7757;52.626;4.746;2023-03-26T01:30:09;100449.06;;;14.53;58.36
15314;BME280;7757;52.626;4.746;2023-03-26T01:33:00;100440.97;;;14.53;59.19
15314;BME280;7757;52.626;4.746;2023-03-26T01:35:52;100441.41;;;14.50;58.78
15314;BME280;7757;52.626;4.746;2023-03-26T01:38:43;100425.28;;;14.50;58.47
15314;BME280;7757;52.626;4.746;2023-03-26T01:41:39;100432.75;;;14.48;58.87
15314;BME280;7757;52.626;4.746;2023-03-26T01:44:30;100425.50;;;14.48;58.44
15314;BME280;7757;52.626;4.746;2023-03-26T01:47:18;100422.81;;;14.48;58.70
15314;BME280;7757;52.626;4.746;2023-03-26T01:50:08;100419.31;;;14.48;58.92
15314;BME280;7757;52.626;4.746;2023-03-26T01:52:54;100412.72;;;14.44;59.06
15314;BME280;7757;52.626;4.746;2023-03-26T01:55:47;100407.72;;;14.47;58.52
15314;BME280;7757;52.626;4.746;2023-03-26T01:58:42;100406.28;;;14.45;58.84
15314;BME280;7757;52.626;4.746;2023-03-26T02:01:42;100400.09;;;14.44;59.83
15314;BME280;7757;52.626;4.746;2023-03-26T02:04:35;100392.00;;;14.44;58.55
15314;BME280;7757;52.626;4.746;2023-03-26T02:07:27;100384.56;;;14.46;59.29
15314;BME280;7757;52.626;4.746;2023-03-26T02:10:23;100373.63;;;14.41;58.65
15314;BME280;7757;52.626;4.746;2023-03-26T02:13:10;100366.38;;;14.42;59.06
15314;BME280;7757;52.626;4.746;2023-03-26T02:16:00;100371.75;;;14.42;58.69
15314;BME280;7757;52.626;4.746;2023-03-26T02:18:47;100346.38;;;14.31;59.05
15314;BME280;7757;52.626;4.746;2023-03-26T02:21:34;100352.16;;;14.35;58.63
15314;BME280;7757;52.626;4.746;2023-03-26T02:24:20;100359.97;;;14.43;58.94
15314;BME280;7757;52.626;4.746;2023-03-26T02:27:06;100347.00;;;14.33;59.32
15314;BME280;7757;52.626;4.746;2023-03-26T02:29:53;100355.03;;;14.40;58.63
15314;BME280;7757;52.626;4.746;2023-03-26T02:32:40;100344.47;;;14.38;59.16
15314;BME280;7757;52.626;4.746;2023-03-26T02:35:26;100348.00;;;14.39;59.06
15314;BME280;7757;52.626;4.746;2023-03-26T02:38:12;100331.03;;;14.32;58.33
15314;BME280;7757;52.626;4.746;2023-03-26T02:40:58;100334.97;;;14.36;59.41
15314;BME280;7757;52.626;4.746;2023-03-26T02:43:44;100330.03;;;14.33;58.92
15314;BME280;7757;52.626;4.746;2023-03-26T02:46:29;100331.91;;;14.32;59.08
15314;BME280;7757;52.626;4.746;2023-03-26T02:49:16;100331.91;;;14.32;58.92
15314;BME280;7757;52.626;4.746;2023-03-26T02:52:02;100325.66;;;14.32;58.66
15314;BME280;7757;52.626;4.746;2023-03-26T02:54:49;100321.97;;;14.33;59.65
15314;BME280;7757;52.626;4.746;2023-03-26T02:57:34;100311.69;;;14.23;58.34
15314;BME280;7757;52.626;4.746;2023-03-26T03:00:20;100317.00;;;14.30;59.36
15314;BME280;7757;52.626;4.746;2023-03-26T03:03:10;100305.50;;;14.23;59.61
15314;BME280;7757;52.626;4.746;2023-03-26T03:05:57;100313.28;;;14.31;59.29
15314;BME280;7757;52.626;4.746;2023-03-26T03:08:45;100317.00;;;14.30;59.72
15314;BME280;7757;52.626;4.746;2023-03-26T03:11:30;100310.44;;;14.26;60.27
15314;BME280;7757;52.626;4.746;2023-03-26T03:14:15;100310.66;;;14.24;58.67
15314;BME280;7757;52.626;4.746;2023-03-26T03:17:02;100314.75;;;14.27;58.74
15314;BME280;7757;52.626;4.746;2023-03-26T03:19:48;100316.03;;;14.24;59.22
15314;BME280;7757;52.626;4.746;2023-03-26T03:22:34;100312.75;;;14.22;59.46
15314;BME280;7757;52.626;4.746;2023-03-26T03:25:20;100284.72;;;14.12;58.44
15314;BME280;7757;52.626;4.746;2023-03-26T03:28:07;100304.69;;;14.22;58.98
15314;BME280;7757;52.626;4.746;2023-03-26T03:30:55;100290.84;;;14.19;59.15
15314;BME280;7757;52.626;4.746;2023-03-26T03:33:42;100298.69;;;14.20;60.12
15314;BME280;7757;52.626;4.746;2023-03-26T03:36:29;100293.53;;;14.19;59.55
15314;BME280;7757;52.626;4.746;2023-03-26T03:39:17;100294.97;;;14.21;58.86
15314;BME280;7757;52.626;4.746;2023-03-26T03:42:03;100299.50;;;14.21;58.85
15314;BME280;7757;52.626;4.746;2023-03-26T03:44:50;100301.03;;;14.17;59.55
15314;BME280;7757;52.626;4.746;2023-03-26T03:47:36;100303.47;;;14.18;59.50
15314;BME280;7757;52.626;4.746;2023-03-26T03:50:21;100310.94;;;14.16;59.15
15314;BME280;7757;52.626;4.746;2023-03-26T03:53:07;100304.75;;;14.16;59.62
15314;BME280;7757;52.626;4.746;2023-03-26T03:55:54;100305.97;;;14.20;59.46
15314;BME280;7757;52.626;4.746;2023-03-26T03:58:40;100306.41;;;14.17;59.02
15314;BME280;7757;52.626;4.746;2023-03-26T04:01:28;100306.59;;;14.15;58.64
15314;BME280;7757;52.626;4.746;2023-03-26T04:04:15;100306.66;;;14.09;60.33
15314;BME280;7757;52.626;4.746;2023-03-26T04:07:01;100306.41;;;14.17;59.89
15314;BME280;7757;52.626;4.746;2023-03-26T04:09:46;100301.22;;;14.15;59.08
15314;BME280;7757;52.626;4.746;2023-03-26T04:12:33;100308.47;;;14.15;59.57
15314;BME280;7757;52.626;4.746;2023-03-26T04:15:19;100298.16;;;14.12;59.15
15314;BME280;7757;52.626;4.746;2023-03-26T04:18:06;100297.94;;;14.13;60.09
15314;BME280;7757;52.626;4.746;2023-03-26T04:20:53;100297.31;;;14.11;60.04
15314;BME280;7757;52.626;4.746;2023-03-26T04:23:38;100291.94;;;14.11;59.89
15314;BME280;7757;52.626;4.746;2023-03-26T04:26:24;100278.59;;;14.05;58.91
15314;BME280;7757;52.626;4.746;2023-03-26T04:29:16;100255.34;;;13.92;58.97
15314;BME280;7757;52.626;4.746;2023-03-26T04:32:11;100287.25;;;14.07;59.58
15314;BME280;7757;52.626;4.746;2023-03-26T04:34:57;100289.50;;;14.10;59.70
15314;BME280;7757;52.626;4.746;2023-03-26T04:37:47;100277.53;;;14.06;59.50
15314;BME280;7757;52.626;4.746;2023-03-26T04:40:32;100278.97;;;14.08;59.46
15314;BME280;7757;52.626;4.746;2023-03-26T04:43:18;100278.34;;;14.06;59.63
15314;BME280;7757;52.626;4.746;2023-03-26T04:46:06;100273.22;;;14.05;59.12
15314;BME280;7757;52.626;4.746;2023-03-26T04:48:53;100269.09;;;14.02;58.83
15314;BME280;7757;52.626;4.746;2023-03-26T04:51:40;100275.47;;;14.08;59.46
15314;BME280;7757;52.626;4.746;2023-03-26T04:54:27;100274.63;;;14.07;59.11
15314;BME280;7757;52.626;4.746;2023-03-26T04:57:18;100266.88;;;13.99;58.87
15314;BME280;7757;52.626;4.746;2023-03-26T05:00:06;100270.72;;;14.03;59.35
15314;BME280;7757;52.626;4.746;2023-03-26T05:03:00;100267.22;;;14.03;60.18
15314;BME280;7757;52.626;4.746;2023-03-26T05:05:45;100261.84;;;14.03;59.00
15314;BME280;7757;52.626;4.746;2023-03-26T05:08:33;100254.22;;;13.99;59.58
15314;BME280;7757;52.626;4.746;2023-03-26T05:11:18;100251.53;;;13.99;58.95
15314;BME280;7757;52.626;4.746;2023-03-26T05:14:04;100251.53;;;13.99;59.13
15314;BME280;7757;52.626;4.746;2023-03-26T05:16:50;100252.34;;;14.00;59.28
15314;BME280;7757;52.626;4.746;2023-03-26T05:19:39;100238.09;;;13.99;59.75
15314;BME280;7757;52.626;4.746;2023-03-26T05:22:24;100233.53;;;14.00;59.44
15314;BME280;7757;52.626;4.746;2023-03-26T05:25:10;100223.84;;;13.99;58.80
15314;BME280;7757;52.626;4.746;2023-03-26T05:27:55;100193.81;;;13.84;59.46
15314;BME280;7757;52.626;4.746;2023-03-26T05:30:41;100216.81;;;13.98;59.21
15314;BME280;7757;52.626;4.746;2023-03-26T05:33:27;100198.88;;;13.92;59.17
15314;BME280;7757;52.626;4.746;2023-03-26T05:36:15;100169.00;;;13.82;59.86
15314;BME280;7757;52.626;4.746;2023-03-26T05:39:02;100200.31;;;13.94;59.33
15314;BME280;7757;52.626;4.746;2023-03-26T05:41:48;100208.38;;;13.94;60.19
15314;BME280;7757;52.626;4.746;2023-03-26T05:44:33;100208.38;;;13.94;59.63
15314;BME280;7757;52.626;4.746;2023-03-26T05:47:19;100209.41;;;13.93;59.32
15314;BME280;7757;52.626;4.746;2023-03-26T05:50:07;100207.53;;;13.94;60.21
15314;BME280;7757;52.626;4.746;2023-03-26T05:52:54;100203.59;;;13.96;59.39
15314;BME280;7757;52.626;4.746;2023-03-26T05:55:40;100204.66;;;13.95;58.86
15314;BME280;7757;52.626;4.746;2023-03-26T05:58:29;100218.91;;;13.96;59.04
15314;BME280;7757;52.626;4.746;2023-03-26T06:01:15;100209.88;;;13.90;60.01
15314;BME280;7757;52.626;4.746;2023-03-26T06:04:01;100213.53;;;13.96;59.19
15314;BME280;7757;52.626;4.746;2023-03-26T06:06:46;100208.38;;;13.94;60.01
15314;BME280;7757;52.626;4.746;2023-03-26T06:09:34;100212.47;;;13.97;59.57
15314;BME280;7757;52.626;4.746;2023-03-26T06:12:21;100207.53;;;13.94;60.05
15314;BME280;7757;52.626;4.746;2023-03-26T06:15:08;100193.50;;;13.92;59.47
15314;BME280;7757;52.626;4.746;2023-03-26T06:17:54;100188.59;;;13.89;59.46
15314;BME280;7757;52.626;4.746;2023-03-26T06:20:40;100204.66;;;13.95;59.91
15314;BME280;7757;52.626;4.746;2023-03-26T06:23:26;100180.31;;;13.90;59.09
15314;BME280;7757;52.626;4.746;2023-03-26T06:26:13;100188.97;;;13.92;60.17
15314;BME280;7757;52.626;4.746;2023-03-26T06:28:58;100188.38;;;13.90;59.12
15314;BME280;7757;52.626;4.746;2023-03-26T06:31:44;100181.56;;;13.88;59.39
15314;BME280;7757;52.626;4.746;2023-03-26T06:34:30;100191.84;;;13.91;59.56
15314;BME280;7757;52.626;4.746;2023-03-26T06:37:17;100188.00;;;13.87;58.87
15314;BME280;7757;52.626;4.746;2023-03-26T06:40:02;100188.59;;;13.89;59.66
15314;BME280;7757;52.626;4.746;2023-03-26T06:42:50;100190.38;;;13.95;59.19
15314;BME280;7757;52.626;4.746;2023-03-26T06:45:38;100185.31;;;13.87;59.71
15314;BME280;7757;52.626;4.746;2023-03-26T06:48:24;100186.34;;;13.86;59.65
15314;BME280;7757;52.626;4.746;2023-03-26T06:51:09;100187.09;;;13.93;59.46
15314;BME280;7757;52.626;4.746;2023-03-26T06:53:55;100172.84;;;13.92;59.45
15314;BME280;7757;52.626;4.746;2023-03-26T06:56:40;100188.72;;;13.94;59.50
15314;BME280;7757;52.626;4.746;2023-03-26T06:59:27;100158.50;;;13.80;58.40
15314;BME280;7757;52.626;4.746;2023-03-26T07:02:13;100180.66;;;13.94;58.99
15314;BME280;7757;52.626;4.746;2023-03-26T07:04:58;100181.88;;;13.98;59.66
15314;BME280;7757;52.626;4.746;2023-03-26T07:07:46;100182.91;;;13.97;58.77
15314;BME280;7757;52.626;4.746;2023-03-26T07:10:33;100185.00;;;13.95;59.18
15314;BME280;7757;52.626;4.746;2023-03-26T07:13:19;100184.63;;;13.91;59.79
15314;BME280;7757;52.626;4.746;2023-03-26T07:16:06;100179.47;;;13.90;58.93
15314;BME280;7757;52.626;4.746;2023-03-26T07:18:52;100176.69;;;13.96;59.36
15314;BME280;7757;52.626;4.746;2023-03-26T07:21:38;100167.22;;;13.94;59.38
15314;BME280;7757;52.626;4.746;2023-03-26T07:24:25;100168.88;;;13.95;58.23
15314;BME280;7757;52.626;4.746;2023-03-26T07:27:22;100167.38;;;13.99;58.87
15314;BME280;7757;52.626;4.746;2023-03-26T07:30:14;100169.47;;;13.97;58.29
15314;BME280;7757;52.626;4.746;2023-03-26T07:33:09;100171.88;;;14.05;58.46
15314;BME280;7757;52.626;4.746;2023-03-26T07:36:07;100172.53;;;14.01;58.67
15314;BME280;7757;52.626;4.746;2023-03-26T07:39:07;100171.41;;;14.08;58.47
15314;BME280;7757;52.626;4.746;2023-03-26T07:42:02;100171.03;;;14.05;57.91
15314;BME280;7757;52.626;4.746;2023-03-26T07:44:57;100176.56;;;14.10;58.89
15314;BME280;7757;52.626;4.746;2023-03-26T07:47:46;100175.53;;;14.11;58.83
15314;BME280;7757;52.626;4.746;2023-03-26T07:50:34;100168.94;;;14.07;59.20
15314;BME280;7757;52.626;4.746;2023-03-26T07:53:20;100183.72;;;14.16;58.78
15314;BME280;7757;52.626;4.746;2023-03-26T07:56:11;100156.47;;;14.12;58.52
15314;BME280;7757;52.626;4.746;2023-03-26T07:59:09;100179.81;;;14.30;58.79
15314;BME280;7757;52.626;4.746;2023-03-26T08:02:13;100183.09;;;14.32;58.17
15314;BME280;7757;52.626;4.746;2023-03-26T08:05:10;100194.88;;;14.37;58.00
15314;BME280;7757;52.626;4.746;2023-03-26T08:08:10;100199.00;;;14.40;57.50
15314;BME280;7757;52.626;4.746;2023-03-26T08:11:10;100197.72;;;14.42;57.73
15314;BME280;7757;52.626;4.746;2023-03-26T08:14:06;100186.56;;;14.39;57.41
15314;BME280;7757;52.626;4.746;2023-03-26T08:17:01;100198.09;;;14.46;58.15
15314;BME280;7757;52.626;4.746;2023-03-26T08:19:54;100200.78;;;14.46;57.50
15314;BME280;7757;52.626;4.746;2023-03-26T08:22:50;100198.91;;;14.46;57.61
15314;BME280;7757;52.626;4.746;2023-03-26T08:25:49;100200.91;;;14.51;57.07
15314;BME280;7757;52.626;4.746;2023-03-26T08:28:49;100209.28;;;14.43;57.65
15314;BME280;7757;52.626;4.746;2023-03-26T08:31:43;100212.88;;;14.37;57.52
15314;BME280;7757;52.626;4.746;2023-03-26T08:34:31;100216.41;;;14.37;57.08
15314;BME280;7757;52.626;4.746;2023-03-26T08:37:17;100212.06;;;14.36;57.32
15314;BME280;7757;52.626;4.746;2023-03-26T08:40:03;100218.53;;;14.47;57.64
15314;BME280;7757;52.626;4.746;2023-03-26T08:49:58;100216.97;;;14.58;56.21
15314;BME280;7757;52.626;4.746;2023-03-26T08:53:26;100208.00;;;14.64;56.53
15314;BME280;7757;52.626;4.746;2023-03-26T08:56:25;100218.09;;;14.80;55.97
15314;BME280;7757;52.626;4.746;2023-03-26T09:03:07;100204.59;;;14.98;55.81
15314;BME280;7757;52.626;4.746;2023-03-26T09:06:23;100218.00;;;15.16;55.23
15314;BME280;7757;52.626;4.746;2023-03-26T09:12:49;100219.41;;;15.19;54.78
15314;BME280;7757;52.626;4.746;2023-03-26T09:19:23;100224.69;;;15.25;54.31
15314;BME280;7757;52.626;4.746;2023-03-26T09:26:08;100205.44;;;15.10;55.42
15314;BME280;7757;52.626;4.746;2023-03-26T09:29:40;100231.81;;;15.20;54.74
15314;BME280;7757;52.626;4.746;2023-03-26T09:33:08;100226.91;;;15.17;54.55
15314;BME280;7757;52.626;4.746;2023-03-26T09:36:18;100234.03;;;15.11;55.59
15314;BME280;7757;52.626;4.746;2023-03-26T09:39:10;100235.44;;;15.14;55.52
15314;BME280;7757;52.626;4.746;2023-03-26T09:42:15;100236.72;;;15.11;54.93
15314;BME280;7757;52.626;4.746;2023-03-26T09:45:29;100244.34;;;15.14;55.04
15314;BME280;7757;52.626;4.746;2023-03-26T09:48:58;100244.94;;;15.16;54.76
15314;BME280;7757;52.626;4.746;2023-03-26T09:51:57;100248.09;;;15.13;55.07
15314;BME280;7757;52.626;4.746;2023-03-26T09:55:01;100233.41;;;15.09;54.77
15314;BME280;7757;52.626;4.746;2023-03-26T09:58:04;100243.53;;;15.14;54.88
15314;BME280;7757;52.626;4.746;2023-03-26T10:00:56;100253.47;;;15.13;55.63
15314;BME280;7757;52.626;4.746;2023-03-26T10:03:56;100246.66;;;15.11;55.18
15314;BME280;7757;52.626;4.746;2023-03-26T10:06:49;100250.19;;;15.11;55.06
15314;BME280;7757;52.626;4.746;2023-03-26T10:09:44;100253.47;;;15.13;55.43
15314;BME280;7757;52.626;4.746;2023-03-26T10:12:36;100248.91;;;15.14;54.97
15314;BME280;7757;52.626;4.746;2023-03-26T10:15:31;100255.34;;;15.13;54.59
15314;BME280;7757;52.626;4.746;2023-03-26T10:18:26;100255.91;;;15.15;55.60
15314;BME280;7757;52.626;4.746;2023-03-26T10:21:19;100247.50;;;15.11;55.78
15314;BME280;7757;52.626;4.746;2023-03-26T10:24:21;100254.16;;;15.08;55.60
15314;BME280;7757;52.626;4.746;2023-03-26T10:27:36;100258.03;;;15.13;55.27
15314;BME280;7757;52.626;4.746;2023-03-26T10:30:36;100266.69;;;15.15;55.41
15314;BME280;7757;52.626;4.746;2023-03-26T10:33:33;100263.66;;;15.11;55.49
15314;BME280;7757;52.626;4.746;2023-03-26T10:36:29;100258.94;;;15.06;55.04
15314;BME280;7757;52.626;4.746;2023-03-26T10:42:55;100275.47;;;15.10;54.63
15314;BME280;7757;52.626;4.746;2023-03-26T10:45:55;100283.09;;;15.13;55.43
15314;BME280;7757;52.626;4.746;2023-03-26T10:49:16;100281.22;;;15.14;55.44
15314;BME280;7757;52.626;4.746;2023-03-26T10:52:08;100287.91;;;15.11;55.57
15314;BME280;7757;52.626;4.746;2023-03-26T10:55:03;100283.56;;;15.10;55.30
15314;BME280;7757;52.626;4.746;2023-03-26T10:57:56;100286.25;;;15.10;55.14
15314;BME280;7757;52.626;4.746;2023-03-26T11:00:53;100274.84;;;14.96;55.29
15314;BME280;7757;52.626;4.746;2023-03-26T11:03:46;100296.44;;;15.08;55.24
15314;BME280;7757;52.626;4.746;2023-03-26T11:06:39;100303.56;;;15.02;55.14
15314;BME280;7757;52.626;4.746;2023-03-26T11:09:38;100312.44;;;15.03;56.11
15314;BME280;7757;52.626;4.746;2023-03-26T11:12:34;100306.25;;;15.02;55.26
15314;BME280;7757;52.626;4.746;2023-03-26T11:15:25;100313.06;;;15.05;55.31
15314;BME280;7757;52.626;4.746;2023-03-26T11:18:19;100311.63;;;15.02;55.67
15314;BME280;7757;52.626;4.746;2023-03-26T11:21:10;100314.53;;;15.01;55.90
15314;BME280;7757;52.626;4.746;2023-03-26T11:24:10;100314.53;;;15.01;55.33
15314;BME280;7757;52.626;4.746;2023-03-26T11:27:04;100308.13;;;15.02;55.98
15314;BME280;7757;52.626;4.746;2023-03-26T11:30:01;100315.38;;;15.01;55.67
15314;BME280;7757;52.626;4.746;2023-03-26T11:32:52;100319.03;;;15.07;55.06
15314;BME280;7757;52.626;4.746;2023-03-26T11:35:43;100311.53;;;15.09;56.19
15314;BME280;7757;52.626;4.746;2023-03-26T11:38:32;100325.81;;;15.09;56.03
15314;BME280;7757;52.626;4.746;2023-03-26T11:41:24;100328.44;;;15.16;55.54
15314;BME280;7757;52.626;4.746;2023-03-26T11:44:18;100331.56;;;15.13;56.05
15314;BME280;7757;52.626;4.746;2023-03-26T11:47:06;100331.78;;;15.12;55.74
15314;BME280;7757;52.626;4.746;2023-03-26T11:49:56;100325.69;;;15.04;55.31
15314;BME280;7757;52.626;4.746;2023-03-26T11:52:48;100335.94;;;15.14;55.73
15314;BME280;7757;52.626;4.746;2023-03-26T11:55:34;100338.38;;;15.16;56.05
15314;BME280;7757;52.626;4.746;2023-03-26T11:58:24;100345.63;;;15.15;55.64
15314;BME280;7757;52.626;4.746;2023-03-26T12:01:16;100352.09;;;15.14;55.27
15314;BME280;7757;52.626;4.746;2023-03-26T12:04:05;100350.34;;;15.20;54.96
15314;BME280;7757;52.626;4.746;2023-03-26T12:06:57;100351.53;;;15.24;54.85
15314;BME280;7757;52.626;4.746;2023-03-26T12:09:51;100349.28;;;15.21;55.04
15314;BME280;7757;52.626;4.746;2023-03-26T12:12:40;100361.13;;;15.20;55.76
15314;BME280;7757;52.626;4.746;2023-03-26T12:15:27;100358.19;;;15.21;55.55
15314;BME280;7757;52.626;4.746;2023-03-26T12:18:22;100362.75;;;15.21;54.84
15314;BME280;7757;52.626;4.746;2023-03-26T12:21:11;100369.41;;;15.18;55.70
15314;BME280;7757;52.626;4.746;2023-03-26T12:23:58;100367.56;;;15.19;55.40
15314;BME280;7757;52.626;4.746;2023-03-26T12:26:45;100374.97;;;15.23;55.34
15314;BME280;7757;52.626;4.746;2023-03-26T12:29:33;100380.94;;;15.25;55.69
15314;BME280;7757;52.626;4.746;2023-03-26T12:32:18;100383.50;;;15.20;55.43
15314;BME280;7757;52.626;4.746;2023-03-26T12:35:06;100384.91;;;15.23;55.50
15314;BME280;7757;52.626;4.746;2023-03-26T12:37:52;100389.69;;;15.21;55.04
15314;BME280;7757;52.626;4.746;2023-03-26T12:40:38;100357.03;;;14.99;55.67
15314;BME280;7757;52.626;4.746;2023-03-26T12:43:30;100389.34;;;15.17;55.01
15314;BME280;7757;52.626;4.746;2023-03-26T12:46:26;100407.88;;;15.25;55.36
15314;BME280;7757;52.626;4.746;2023-03-26T12:49:20;100408.91;;;15.24;55.37
15314;BME280;7757;52.626;4.746;2023-03-26T12:52:48;100416.94;;;15.31;55.50
15314;BME280;7757;52.626;4.746;2023-03-26T12:55:49;100428.28;;;15.33;54.80
15314;BME280;7757;52.626;4.746;2023-03-26T12:58:53;100425.84;;;15.31;55.66
15314;BME280;7757;52.626;4.746;2023-03-26T13:01:51;100428.97;;;15.28;55.68
15314;BME280;7757;52.626;4.746;2023-03-26T13:04:54;100423.72;;;15.33;55.53
15314;BME280;7757;52.626;4.746;2023-03-26T13:07:58;100430.31;;;15.37;55.53
15314;BME280;7757;52.626;4.746;2023-03-26T13:10:54;100438.47;;;15.31;54.87
15314;BME280;7757;52.626;4.746;2023-03-26T13:14:15;100432.50;;;15.29;55.74
15314;BME280;7757;52.626;4.746;2023-03-26T13:17:09;100434.00;;;15.25;55.11
15314;BME280;7757;52.626;4.746;2023-03-26T13:20:04;100440.22;;;15.25;54.73
15314;BME280;7757;52.626;4.746;2023-03-26T13:22:59;100444.84;;;15.18;55.89
15314;BME280;7757;52.626;4.746;2023-03-26T13:25:53;100444.19;;;15.23;54.82
15314;BME280;7757;52.626;4.746;2023-03-26T13:28:50;100454.97;;;15.23;55.42
15314;BME280;7757;52.626;4.746;2023-03-26T13:31:46;100449.41;;;15.18;55.16
15314;BME280;7757;52.626;4.746;2023-03-26T13:34:44;100454.88;;;15.29;55.07
15314;BME280;7757;52.626;4.746;2023-03-26T13:37:37;100453.38;;;15.33;55.18
15314;BME280;7757;52.626;4.746;2023-03-26T13:40:32;100463.41;;;15.26;55.27
15314;BME280;7757;52.626;4.746;2023-03-26T13:43:31;100463.09;;;15.34;54.35
15314;BME280;7757;52.626;4.746;2023-03-26T13:46:28;100469.09;;;15.36;55.29
15314;BME280;7757;52.626;4.746;2023-03-26T13:49:28;100465.72;;;15.41;55.21
15314;BME280;7757;52.626;4.746;2023-03-26T13:52:23;100470.44;;;15.45;55.09
15314;BME280;7757;52.626;4.746;2023-03-26T13:55:21;100473.59;;;15.60;55.06
15314;BME280;7757;52.626;4.746;2023-03-26T13:58:11;100483.09;;;15.63;54.50
15314;BME280;7757;52.626;4.746;2023-03-26T14:01:06;100475.00;;;15.63;54.35
15314;BME280;7757;52.626;4.746;2023-03-26T14:03:59;100478.59;;;15.57;54.83
15314;BME280;7757;52.626;4.746;2023-03-26T14:06:51;100468.56;;;15.46;55.14
15314;BME280;7757;52.626;4.746;2023-03-26T14:09:45;100497.25;;;15.58;54.88
15314;BME280;7757;52.626;4.746;2023-03-26T14:12:43;100500.66;;;15.66;55.13
15314;BME280;7757;52.626;4.746;2023-03-26T14:15:40;100509.28;;;15.56;55.10
15314;BME280;7757;52.626;4.746;2023-03-26T14:18:34;100505.94;;;15.60;54.85
15314;BME280;7757;52.626;4.746;2023-03-26T14:21:43;100517.38;;;15.56;55.59
15314;BME280;7757;52.626;4.746;2023-03-26T14:25:03;100518.44;;;15.55;54.71
15314;BME280;7757;52.626;4.746;2023-03-26T14:28:01;100508.03;;;15.58;54.89
15314;BME280;7757;52.626;4.746;2023-03-26T14:31:02;100515.81;;;15.67;54.88
15314;BME280;7757;52.626;4.746;2023-03-26T14:34:04;100531.16;;;15.66;54.80
15314;BME280;7757;52.626;4.746;2023-03-26T14:37:23;100535.66;;;15.54;56.31
15314;BME280;7757;52.626;4.746;2023-03-26T14:40:48;100535.22;;;15.57;56.21
15314;BME280;7757;52.626;4.746;2023-03-26T14:43:57;100531.03;;;15.61;55.18
15314;BME280;7757;52.626;4.746;2023-03-26T14:46:55;100541.81;;;15.61;56.25
15314;BME280;7757;52.626;4.746;2023-03-26T14:53:26;100550.41;;;16.17;56.19
15314;BME280;7757;52.626;4.746;2023-03-26T14:56:41;100565.34;;;16.32;56.92
15314;BME280;7757;52.626;4.746;2023-03-26T15:03:01;100586.53;;;15.98;56.00
15314;BME280;7757;52.626;4.746;2023-03-26T15:06:18;100576.59;;;15.81;55.83
15314;BME280;7757;52.626;4.746;2023-03-26T15:13:12;100591.75;;;15.82;56.81
15314;BME280;7757;52.626;4.746;2023-03-26T15:16:10;100588.97;;;15.70;56.84
15314;BME280;7757;52.626;4.746;2023-03-26T15:19:27;100596.69;;;15.85;56.13
15314;BME280;7757;52.626;4.746;2023-03-26T15:22:47;100600.34;;;15.90;56.08
15314;BME280;7757;52.626;4.746;2023-03-26T15:29:45;100613.13;;;15.95;56.33
15314;BME280;7757;52.626;4.746;2023-03-26T15:39:37;100618.78;;;15.75;57.04
15314;BME280;7757;52.626;4.746;2023-03-26T15:42:30;100628.59;;;15.70;57.23
15314;BME280;7757;52.626;4.746;2023-03-26T15:45:30;100637.88;;;15.74;57.12
15314;BME280;7757;52.626;4.746;2023-03-26T15:48:30;100632.38;;;15.62;57.64
15314;BME280;7757;52.626;4.746;2023-03-26T15:51:32;100661.53;;;15.72;57.10
15314;BME280;7757;52.626;4.746;2023-03-26T15:54:27;100655.84;;;15.61;57.38
15314;BME280;7757;52.626;4.746;2023-03-26T15:57:22;100668.50;;;15.61;57.24
15314;BME280;7757;52.626;4.746;2023-03-26T16:00:19;100670.75;;;15.64;56.70